Terminal Aerodrome Forecast
Issued by NWS Greer, SC

Home | Current Version | Previous Version | Text Only | Print | Product List | Glossary On
Versions: 1 2 3 4 5 6 7 8 9 10 11 12 13 14 15 16 17 18 19 20 21 22 23 24 25 26 27 28 29 30
000
FTUS42 KGSP 162007 AAA
TAFCLT
TAF AMD
KCLT 162007Z 1620/1724 22008KT P6SM BKN250
     FM170200 VRB03KT P6SM SCT040 OVC080 PROB30 1705/1707 3SM -RASN
      OVC025
     FM170700 31004KT 2SM -SN SCT007 OVC015
     FM171300 01007KT P6SM OVC015 PROB30 1713/1716 2SM -SN OVC007
     FM171800 36007KT P6SM SCT045=

USA.gov is the U.S. government's official web portal to all federal, state and local government web resources and services.